createdAt,value
2022-10-28T00:01:35.440Z,21.14
2022-10-28T00:04:07.801Z,21.02
2022-10-28T00:06:38.141Z,21.05
2022-10-28T00:09:09.787Z,21.08
2022-10-28T00:11:41.157Z,21.02
2022-10-28T00:14:12.247Z,20.99
2022-10-28T00:16:41.434Z,20.96
2022-10-28T00:19:13.214Z,20.78
2022-10-28T00:21:44.369Z,20.66
2022-10-28T00:24:14.795Z,20.67
2022-10-28T00:26:44.301Z,20.51
2022-10-28T00:29:17.624Z,20.39
2022-10-28T00:31:47.331Z,20.36
2022-10-28T00:34:18.164Z,20.28
2022-10-28T00:36:47.463Z,20.32
2022-10-28T00:39:23.123Z,20.29
2022-10-28T00:41:54.258Z,20.32
2022-10-28T00:44:40.718Z,20.42
2022-10-28T00:47:18.126Z,20.44
2022-10-28T00:49:49.005Z,20.47
2022-10-28T00:52:22.929Z,20.54
2022-10-28T00:54:57.082Z,20.57
2022-10-28T00:57:31.638Z,20.63
2022-10-28T01:00:01.216Z,20.64
2022-10-28T01:02:35.557Z,20.66
2022-10-28T01:05:05.083Z,20.67
2022-10-28T01:07:33.362Z,20.65
2022-10-28T01:10:03.792Z,20.64
2022-10-28T01:13:00.095Z,20.63
2022-10-28T01:15:45.777Z,20.59
2022-10-28T01:18:26.340Z,20.57
2022-10-28T01:21:38.648Z,20.50
2022-10-28T01:24:18.686Z,20.31
2022-10-28T01:27:09.462Z,20.28
2022-10-28T01:30:18.354Z,20.17
2022-10-28T01:33:17.827Z,20.17
2022-10-28T01:36:17.853Z,20.02
2022-10-28T01:38:54.754Z,20.06
2022-10-28T01:41:37.420Z,20.08
2022-10-28T01:44:38.423Z,20.05
2022-10-28T01:47:13.008Z,20.01
2022-10-28T01:49:58.145Z,20.07
2022-10-28T01:52:30.677Z,19.97
2022-10-28T01:55:06.999Z,19.83
2022-10-28T01:57:38.370Z,19.77
2022-10-28T02:00:07.158Z,19.86
2022-10-28T02:02:43.251Z,19.90
2022-10-28T02:05:41.804Z,19.95
2022-10-28T02:08:19.060Z,19.98
2022-10-28T02:11:03.717Z,20.03
2022-10-28T02:13:59.164Z,20.06
2022-10-28T02:16:38.418Z,20.08
2022-10-28T02:19:24.646Z,20.12
2022-10-28T02:22:04.718Z,20.15
2022-10-28T02:25:11.024Z,20.16
2022-10-28T02:27:44.987Z,20.16
2022-10-28T02:30:20.069Z,20.17
2022-10-28T02:32:54.831Z,20.16
2022-10-28T02:36:04.858Z,20.14
2022-10-28T02:38:40.743Z,20.14
2022-10-28T02:41:32.506Z,20.12
2022-10-28T02:44:07.932Z,20.12
2022-10-28T02:46:38.823Z,20.11
2022-10-28T02:49:13.697Z,20.10
2022-10-28T02:51:47.250Z,20.04
2022-10-28T02:54:16.752Z,19.99
2022-10-28T02:57:07.252Z,19.95
2022-10-28T02:59:35.202Z,19.97
2022-10-28T03:02:11.302Z,19.96
2022-10-28T03:04:48.515Z,19.98
2022-10-28T03:07:16.222Z,20.02
2022-10-28T03:09:46.010Z,20.08
2022-10-28T03:12:22.270Z,20.10
2022-10-28T03:14:49.651Z,20.13
2022-10-28T03:17:17.634Z,20.18
2022-10-28T03:19:47.910Z,20.19
2022-10-28T03:22:15.524Z,20.21
2022-10-28T03:24:42.980Z,20.23
2022-10-28T03:27:10.505Z,20.12
2022-10-28T03:29:40.877Z,20.17
2022-10-28T03:32:11.975Z,20.14
2022-10-28T03:34:39.807Z,20.12
2022-10-28T03:37:08.245Z,20.15
2022-10-28T03:39:36.583Z,20.14
2022-10-28T03:42:04.105Z,20.12
2022-10-28T03:44:31.872Z,20.05
2022-10-28T03:46:59.605Z,19.84
2022-10-28T03:49:27.061Z,19.82
2022-10-28T03:51:54.678Z,19.76
2022-10-28T03:54:22.081Z,19.72
2022-10-28T03:56:52.714Z,19.75
2022-10-28T03:59:23.563Z,19.70
2022-10-28T04:01:53.240Z,19.77
2022-10-28T04:04:21.242Z,19.64
2022-10-28T04:06:48.796Z,19.56
2022-10-28T04:09:16.852Z,19.58
2022-10-28T04:11:44.816Z,19.47
2022-10-28T04:14:12.506Z,19.47
2022-10-28T04:16:40.399Z,19.22
2022-10-28T04:19:08.131Z,19.15
2022-10-28T04:21:35.829Z,19.01
2022-10-28T04:24:04.673Z,18.99
2022-10-28T04:26:34.737Z,18.94
2022-10-28T04:29:02.256Z,18.96
2022-10-28T04:31:32.171Z,18.93
2022-10-28T04:33:59.661Z,19.02
2022-10-28T04:36:27.026Z,19.00
2022-10-28T04:38:54.467Z,19.03
2022-10-28T04:41:29.201Z,18.96
2022-10-28T04:43:56.993Z,19.03
2022-10-28T04:46:36.942Z,19.04
2022-10-28T04:49:06.376Z,19.01
2022-10-28T04:51:38.035Z,19.05
2022-10-28T04:54:05.761Z,19.10
2022-10-28T04:56:41.215Z,19.05
2022-10-28T04:59:14.305Z,18.99
2022-10-28T05:01:50.208Z,18.97
2022-10-28T05:04:19.353Z,18.87
2022-10-28T05:06:46.911Z,18.86
2022-10-28T05:09:18.541Z,18.86
2022-10-28T05:11:47.604Z,18.80
2022-10-28T05:14:15.152Z,18.80
2022-10-28T05:16:42.727Z,18.74
2022-10-28T05:19:11.375Z,18.76
2022-10-28T05:21:39.140Z,18.85
2022-10-28T05:24:07.065Z,18.89
2022-10-28T05:26:34.624Z,18.96
2022-10-28T05:29:02.085Z,19.02
2022-10-28T05:31:29.719Z,19.03
2022-10-28T05:34:01.283Z,19.03
2022-10-28T05:36:31.236Z,19.00
2022-10-28T05:39:00.623Z,18.97
2022-10-28T05:41:28.095Z,18.98
2022-10-28T05:43:55.828Z,18.98
2022-10-28T05:46:24.578Z,18.98
2022-10-28T05:48:51.878Z,18.96
2022-10-28T05:51:19.343Z,18.99
2022-10-28T05:53:46.852Z,18.98
2022-10-28T05:56:20.694Z,18.97
2022-10-28T05:58:57.469Z,18.97
2022-10-28T06:01:38.162Z,18.98
2022-10-28T06:04:12.735Z,18.90
2022-10-28T06:06:43.332Z,18.92
2022-10-28T06:09:11.627Z,18.87
2022-10-28T06:11:49.407Z,18.86
2022-10-28T06:14:17.763Z,18.88
2022-10-28T06:16:58.121Z,18.78
2022-10-28T06:19:34.609Z,18.81
2022-10-28T06:22:02.069Z,18.82
2022-10-28T06:24:29.433Z,18.85
2022-10-28T06:26:57.377Z,18.93
2022-10-28T06:29:24.960Z,18.98
2022-10-28T06:31:54.485Z,18.99
2022-10-28T06:34:22.001Z,19.00
2022-10-28T06:36:50.373Z,18.98
2022-10-28T06:39:17.783Z,19.16
2022-10-28T06:41:48.439Z,19.12
2022-10-28T06:44:15.845Z,19.21
2022-10-28T06:46:44.635Z,19.19
2022-10-28T06:49:12.090Z,19.35
2022-10-28T06:51:39.427Z,19.32
2022-10-28T06:54:07.089Z,19.34
2022-10-28T06:56:34.365Z,19.35
2022-10-28T06:59:02.036Z,19.36
2022-10-28T07:01:29.620Z,19.38
2022-10-28T07:03:57.172Z,19.37
2022-10-28T07:06:27.324Z,19.44
2022-10-28T07:08:54.693Z,19.47
2022-10-28T07:11:22.198Z,19.39
2022-10-28T07:13:49.562Z,19.37
2022-10-28T07:16:16.893Z,19.40
2022-10-28T07:18:44.328Z,19.42
2022-10-28T07:21:17.981Z,19.46
2022-10-28T07:23:47.062Z,19.53
2022-10-28T07:26:14.360Z,19.48
2022-10-28T07:28:44.239Z,19.53
2022-10-28T07:31:15.998Z,19.60
2022-10-28T07:33:43.962Z,19.58
2022-10-28T07:36:12.022Z,19.66
2022-10-28T07:38:39.279Z,19.82
2022-10-28T07:41:09.306Z,19.90
2022-10-28T07:43:44.945Z,20.00
2022-10-28T07:46:12.404Z,20.13
2022-10-28T07:48:47.276Z,20.19
2022-10-28T07:51:15.867Z,20.14
2022-10-28T07:53:43.711Z,20.13
2022-10-28T07:56:14.251Z,20.18
2022-10-28T07:58:43.510Z,20.24
2022-10-28T08:01:12.799Z,20.33
2022-10-28T08:03:41.068Z,20.40
2022-10-28T08:06:12.719Z,20.24
2022-10-28T08:08:40.726Z,20.14
2022-10-28T08:11:19.400Z,20.19
2022-10-28T08:13:47.968Z,20.22
2022-10-28T08:16:16.145Z,20.18
2022-10-28T08:18:43.711Z,20.23
2022-10-28T08:21:13.110Z,20.23
2022-10-28T08:23:41.997Z,20.26
2022-10-28T08:26:10.270Z,20.32
2022-10-28T08:28:37.733Z,20.34
2022-10-28T08:31:12.761Z,20.29
2022-10-28T08:33:44.632Z,20.35
2022-10-28T08:36:14.443Z,20.40
2022-10-28T08:38:45.724Z,20.37
2022-10-28T08:41:36.366Z,20.48
2022-10-28T08:44:33.948Z,20.55
2022-10-28T08:47:22.169Z,20.61
2022-10-28T08:49:55.735Z,20.68
2022-10-28T08:52:35.576Z,20.58
2022-10-28T08:55:13.902Z,20.68
2022-10-28T08:57:53.461Z,20.78
2022-10-28T09:00:25.186Z,20.85
2022-10-28T09:03:22.721Z,20.94
2022-10-28T09:05:56.865Z,20.99
2022-10-28T09:08:26.585Z,21.01
2022-10-28T09:11:13.992Z,21.12
2022-10-28T09:14:10.016Z,21.12
2022-10-28T09:16:47.603Z,21.18
2022-10-28T09:19:32.781Z,21.23
2022-10-28T09:22:29.526Z,21.29
2022-10-28T09:25:00.282Z,21.38
2022-10-28T09:27:42.860Z,21.44
2022-10-28T09:30:34.122Z,21.52
2022-10-28T09:33:26.564Z,21.51
2022-10-28T09:36:02.202Z,21.56
2022-10-28T09:38:41.205Z,21.59
2022-10-28T09:41:35.093Z,21.64
2022-10-28T09:44:02.468Z,21.68
2022-10-28T09:46:36.237Z,21.73
2022-10-28T09:49:25.687Z,21.84
2022-10-28T09:51:53.195Z,21.86
2022-10-28T09:54:34.457Z,21.94
2022-10-28T09:57:03.476Z,22.02
2022-10-28T09:59:31.737Z,22.04
2022-10-28T10:01:59.576Z,22.03
2022-10-28T10:04:31.624Z,22.06
2022-10-28T10:07:03.803Z,22.17
2022-10-28T10:09:32.955Z,22.21
2022-10-28T10:12:08.892Z,22.20
2022-10-28T10:14:51.251Z,22.22
2022-10-28T10:17:41.915Z,22.34
2022-10-28T10:20:22.074Z,22.45
2022-10-28T10:23:01.553Z,22.55
2022-10-28T10:25:36.509Z,22.75
2022-10-28T10:28:20.291Z,22.86
2022-10-28T10:31:05.631Z,22.87
2022-10-28T10:33:36.362Z,22.87
2022-10-28T10:36:28.524Z,22.98
2022-10-28T10:38:57.416Z,22.98
2022-10-28T10:41:35.609Z,23.00
2022-10-28T10:44:26.991Z,23.01
2022-10-28T10:47:04.971Z,22.91
2022-10-28T10:49:35.667Z,23.00
2022-10-28T10:52:09.233Z,22.97
2022-10-28T10:54:44.365Z,23.00
2022-10-28T10:57:36.255Z,23.00
2022-10-28T11:03:08.485Z,23.18
2022-10-28T11:05:38.464Z,23.17
2022-10-28T11:08:07.851Z,23.19
2022-10-28T11:10:35.640Z,23.21
2022-10-28T11:13:32.660Z,23.26
2022-10-28T11:16:15.161Z,23.25
2022-10-28T11:18:45.042Z,23.34
2022-10-28T11:25:10.175Z,23.42
2022-10-28T11:27:57.629Z,23.49
2022-10-28T11:30:56.220Z,23.48
2022-10-28T11:33:40.385Z,23.59
2022-10-28T11:36:18.157Z,23.56
2022-10-28T11:38:58.547Z,23.61
2022-10-28T11:45:51.937Z,23.52
2022-10-28T11:48:41.112Z,23.46
2022-10-28T11:51:10.697Z,23.61
2022-10-28T11:54:04.061Z,23.76
2022-10-28T11:57:15.913Z,23.86
2022-10-28T12:04:33.600Z,23.72
2022-10-28T12:07:10.860Z,23.61
2022-10-28T12:09:59.365Z,23.73
2022-10-28T12:12:48.663Z,23.76
2022-10-28T12:15:56.840Z,23.77
2022-10-28T12:18:41.705Z,23.74
2022-10-28T12:21:18.158Z,23.66
2022-10-28T12:23:48.837Z,23.61
2022-10-28T12:26:19.888Z,23.67
2022-10-28T12:28:56.185Z,23.61
2022-10-28T12:31:31.844Z,23.60
2022-10-28T12:34:05.010Z,23.62
2022-10-28T12:36:45.489Z,23.55
2022-10-28T12:39:21.553Z,23.53
2022-10-28T12:42:17.633Z,23.56
2022-10-28T12:44:53.914Z,23.63
2022-10-28T12:47:43.345Z,23.62
2022-10-28T12:50:38.936Z,23.61
2022-10-28T12:53:25.468Z,23.58
2022-10-28T12:56:00.442Z,23.65
2022-10-28T12:58:57.993Z,23.51
2022-10-28T13:01:31.553Z,23.54
2022-10-28T13:04:11.482Z,23.45
2022-10-28T13:07:13.489Z,23.34
2022-10-28T13:09:53.096Z,23.34
2022-10-28T13:12:58.210Z,23.32
2022-10-28T13:15:31.837Z,23.38
2022-10-28T13:18:33.847Z,23.42
2022-10-28T13:21:22.706Z,23.62
2022-10-28T13:24:13.351Z,23.78
2022-10-28T13:26:45.963Z,23.83
2022-10-28T13:29:38.576Z,23.85
2022-10-28T13:32:07.610Z,23.86
2022-10-28T13:34:39.759Z,23.82
2022-10-28T13:37:22.156Z,23.84
2022-10-28T13:39:50.547Z,23.85
2022-10-28T13:42:19.754Z,23.93
2022-10-28T13:45:01.832Z,23.92
2022-10-28T13:47:32.269Z,23.95
2022-10-28T13:50:29.893Z,23.83
2022-10-28T13:53:23.924Z,23.92
2022-10-28T13:56:11.965Z,24.01
2022-10-28T13:58:52.240Z,23.77
2022-10-28T14:02:08.038Z,23.85
2022-10-28T14:04:54.066Z,23.85
2022-10-28T14:07:34.483Z,24.01
2022-10-28T14:10:21.198Z,24.11
2022-10-28T14:12:57.919Z,24.20
2022-10-28T14:15:53.189Z,24.26
2022-10-28T14:21:12.022Z,24.00
2022-10-28T14:24:34.235Z,24.02
2022-10-28T14:27:11.944Z,23.92
2022-10-28T14:29:53.949Z,23.78
2022-10-28T14:32:32.700Z,23.83
2022-10-28T14:35:14.973Z,23.61
2022-10-28T14:38:25.238Z,23.69
2022-10-28T14:41:21.508Z,23.70
2022-10-28T14:44:32.355Z,23.54
2022-10-28T14:47:20.531Z,23.37
2022-10-28T14:50:03.660Z,23.37
2022-10-28T14:52:37.139Z,23.26
2022-10-28T14:55:20.266Z,23.29
2022-10-28T14:58:20.608Z,23.00
2022-10-28T15:01:02.999Z,23.01
2022-10-28T15:03:31.198Z,22.93
2022-10-28T15:06:48.612Z,22.93
2022-10-28T15:09:22.494Z,22.94
2022-10-28T15:12:00.579Z,22.96
2022-10-28T15:14:56.010Z,22.97
2022-10-28T15:17:46.381Z,22.85
2022-10-28T15:30:56.206Z,22.64
2022-10-28T15:34:07.128Z,22.64
2022-10-28T15:36:51.798Z,22.56
2022-10-28T15:39:19.287Z,22.52
2022-10-28T15:41:55.072Z,22.54
2022-10-28T15:44:30.994Z,22.55
2022-10-28T15:47:22.271Z,22.55
2022-10-28T15:50:04.271Z,22.59
2022-10-28T15:52:38.307Z,22.51
2022-10-28T15:55:54.500Z,22.50
2022-10-28T15:58:37.129Z,22.51
2022-10-28T16:01:10.109Z,22.49
2022-10-28T16:03:47.940Z,22.50
2022-10-28T16:06:25.744Z,22.48
2022-10-28T16:09:07.056Z,22.47
2022-10-28T16:11:46.455Z,22.36
2022-10-28T16:14:34.151Z,22.38
2022-10-28T16:17:16.016Z,22.30
2022-10-28T16:19:52.791Z,22.19
2022-10-28T16:22:23.647Z,22.20
2022-10-28T16:25:23.424Z,22.23
2022-10-28T16:27:51.065Z,22.24
2022-10-28T16:30:19.047Z,22.20
2022-10-28T16:32:53.795Z,22.17
2022-10-28T16:35:26.366Z,22.14
2022-10-28T16:37:55.720Z,22.15
2022-10-28T16:40:50.442Z,21.99
2022-10-28T16:43:20.306Z,22.02
2022-10-28T16:45:49.556Z,22.05
2022-10-28T16:48:17.964Z,22.05
2022-10-28T16:50:54.666Z,22.08
2022-10-28T16:53:22.751Z,22.09
2022-10-28T16:55:50.249Z,22.13
2022-10-28T16:58:21.913Z,22.11
2022-10-28T17:01:00.184Z,22.23
2022-10-28T17:03:28.212Z,22.22
2022-10-28T17:05:59.208Z,22.15
2022-10-28T17:08:49.378Z,22.14
2022-10-28T17:11:15.265Z,22.15
2022-10-28T17:13:42.691Z,22.11
2022-10-28T17:16:23.591Z,22.06
2022-10-28T17:18:51.471Z,21.90
2022-10-28T17:21:18.973Z,21.92
2022-10-28T17:23:48.095Z,21.94
2022-10-28T17:26:15.803Z,21.90
2022-10-28T17:28:52.787Z,21.90
2022-10-28T17:31:23.984Z,21.90
2022-10-28T17:33:55.705Z,21.87
2022-10-28T17:36:24.158Z,21.85
2022-10-28T17:38:51.702Z,21.84
2022-10-28T17:41:19.570Z,21.85
2022-10-28T17:43:48.051Z,21.84
2022-10-28T17:46:15.536Z,21.84
2022-10-28T17:48:43.382Z,21.86
2022-10-28T17:51:11.105Z,21.83
2022-10-28T17:53:38.745Z,21.83
2022-10-28T17:56:07.422Z,21.83
2022-10-28T17:58:35.218Z,21.85
2022-10-28T18:01:05.597Z,21.84
2022-10-28T18:03:40.961Z,21.83
2022-10-28T18:06:12.595Z,21.81
2022-10-28T18:08:43.077Z,21.79
2022-10-28T18:11:13.404Z,21.79
2022-10-28T18:13:45.289Z,21.80
2022-10-28T18:16:15.330Z,21.77
2022-10-28T18:18:43.348Z,21.75
2022-10-28T18:21:11.914Z,21.75
2022-10-28T18:23:39.651Z,21.75
2022-10-28T18:26:10.909Z,21.73
2022-10-28T18:28:39.478Z,21.72
2022-10-28T18:31:19.127Z,21.71
2022-10-28T18:33:50.461Z,21.69
2022-10-28T18:36:20.820Z,21.66
2022-10-28T18:38:49.628Z,21.64
2022-10-28T18:41:20.021Z,21.63
2022-10-28T18:43:48.592Z,21.61
2022-10-28T18:46:16.042Z,21.59
2022-10-28T18:48:43.243Z,21.61
2022-10-28T18:51:12.519Z,21.58
2022-10-28T18:53:48.930Z,21.56
2022-10-28T18:56:22.928Z,21.51
2022-10-28T18:58:52.611Z,21.47
2022-10-28T19:01:25.415Z,21.48
2022-10-28T19:03:59.506Z,21.46
2022-10-28T19:06:34.087Z,21.42
2022-10-28T19:09:04.120Z,21.38
2022-10-28T19:11:33.395Z,21.37
2022-10-28T19:14:03.152Z,21.36
2022-10-28T19:16:35.132Z,21.33
2022-10-28T19:19:05.282Z,21.33
2022-10-28T19:21:40.940Z,21.34
2022-10-28T19:24:08.781Z,21.34
2022-10-28T19:26:36.274Z,21.33
2022-10-28T19:29:04.989Z,21.31
2022-10-28T19:31:36.822Z,21.29
2022-10-28T19:34:04.181Z,21.31
2022-10-28T19:36:31.867Z,21.25
2022-10-28T19:38:59.355Z,21.08
2022-10-28T19:41:30.779Z,21.14
2022-10-28T19:44:01.040Z,21.18
2022-10-28T19:46:31.150Z,21.20
2022-10-28T19:49:00.745Z,21.23
2022-10-28T19:51:30.808Z,21.21
2022-10-28T19:54:01.800Z,21.23
2022-10-28T19:56:35.875Z,21.27
2022-10-28T19:59:06.195Z,21.26
2022-10-28T20:01:36.298Z,21.24
2022-10-28T20:04:05.013Z,21.24
2022-10-28T20:06:34.965Z,21.26
2022-10-28T20:09:06.279Z,21.24
2022-10-28T20:11:36.137Z,21.24
2022-10-28T20:14:08.794Z,21.22
2022-10-28T20:16:43.269Z,21.24
2022-10-28T20:19:11.404Z,21.26
2022-10-28T20:21:39.296Z,21.29
2022-10-28T20:24:10.280Z,21.15
2022-10-28T20:26:39.645Z,21.18
2022-10-28T20:29:10.304Z,21.20
2022-10-28T20:31:39.247Z,21.11
2022-10-28T20:34:07.829Z,21.13
2022-10-28T20:36:47.312Z,21.13
2022-10-28T20:39:21.531Z,21.08
2022-10-28T20:41:53.710Z,21.05
2022-10-28T20:44:21.847Z,21.01
2022-10-28T20:46:55.657Z,20.98
2022-10-28T20:49:23.728Z,20.97
2022-10-28T20:51:51.252Z,21.00
2022-10-28T20:54:28.358Z,20.99
2022-10-28T20:57:23.518Z,20.96
2022-10-28T20:59:55.063Z,20.90
2022-10-28T21:02:24.399Z,20.87
2022-10-28T21:04:52.678Z,20.84
2022-10-28T21:07:27.540Z,20.83
2022-10-28T21:09:55.420Z,20.79
2022-10-28T21:12:23.493Z,20.80
2022-10-28T21:14:50.774Z,20.78
2022-10-28T21:17:18.381Z,20.70
2022-10-28T21:19:45.894Z,20.74
2022-10-28T21:22:14.668Z,20.69
2022-10-28T21:24:45.718Z,20.67
2022-10-28T21:27:13.080Z,20.68
2022-10-28T21:29:40.762Z,20.67
2022-10-28T21:32:08.411Z,20.58
2022-10-28T21:34:35.893Z,20.62
2022-10-28T21:37:03.368Z,20.61
2022-10-28T21:39:31.150Z,20.57
2022-10-28T21:41:58.589Z,20.53
2022-10-28T21:44:26.194Z,20.53
2022-10-28T21:46:57.006Z,20.49
2022-10-28T21:49:24.473Z,20.45
2022-10-28T21:51:54.195Z,20.38
2022-10-28T21:54:21.663Z,20.35
2022-10-28T21:56:50.282Z,20.31
2022-10-28T21:59:20.320Z,20.22
2022-10-28T22:01:47.677Z,20.22
2022-10-28T22:04:15.285Z,20.05
2022-10-28T22:06:42.854Z,20.05
2022-10-28T22:09:10.400Z,19.93
2022-10-28T22:11:40.689Z,19.97
2022-10-28T22:14:08.193Z,19.98
2022-10-28T22:16:36.734Z,19.81
2022-10-28T22:19:07.063Z,19.71
2022-10-28T22:21:45.309Z,19.64
2022-10-28T22:24:12.717Z,19.65
2022-10-28T22:26:40.216Z,19.60
2022-10-28T22:29:08.095Z,19.63
2022-10-28T22:31:43.402Z,19.71
2022-10-28T22:34:12.330Z,19.68
2022-10-28T22:36:40.869Z,19.79
2022-10-28T22:39:14.829Z,19.84
2022-10-28T22:41:45.575Z,19.88
2022-10-28T22:44:13.173Z,19.90
2022-10-28T22:46:41.480Z,19.93
2022-10-28T22:49:10.963Z,19.96
2022-10-28T22:51:38.959Z,19.97
2022-10-28T22:54:08.803Z,19.94
2022-10-28T22:56:36.697Z,19.96
2022-10-28T22:59:07.365Z,19.93
2022-10-28T23:01:39.271Z,19.96
2022-10-28T23:04:10.473Z,19.88
2022-10-28T23:06:38.977Z,19.84
2022-10-28T23:09:06.586Z,19.76
2022-10-28T23:11:35.475Z,19.73
2022-10-28T23:14:02.920Z,19.67
2022-10-28T23:16:30.362Z,19.38
2022-10-28T23:19:01.456Z,19.40
2022-10-28T23:21:29.678Z,19.30
2022-10-28T23:24:01.353Z,19.31
2022-10-28T23:26:30.012Z,19.33
2022-10-28T23:29:00.870Z,19.36
2022-10-28T23:31:29.241Z,19.36
2022-10-28T23:33:56.899Z,19.37
2022-10-28T23:36:42.182Z,19.29
2022-10-28T23:39:10.365Z,19.32
2022-10-28T23:41:37.983Z,19.28
2022-10-28T23:44:06.201Z,19.29
2022-10-28T23:46:37.624Z,19.33
2022-10-28T23:49:20.855Z,19.36
2022-10-28T23:51:48.827Z,19.32
2022-10-28T23:54:16.458Z,19.36
2022-10-28T23:56:44.149Z,19.37
2022-10-28T23:59:12.267Z,19.39
